createdAt,value
2023-02-12T00:00:59.655Z,98415.31
2023-02-12T00:03:57.272Z,98418.75
2023-02-12T00:06:54.157Z,98411.25
2023-02-12T00:09:51.048Z,98406.19
2023-02-12T00:12:47.985Z,98411.50
2023-02-12T00:15:45.891Z,98404.34
2023-02-12T00:18:44.110Z,98405.78
2023-02-12T00:21:40.919Z,98412.28
2023-02-12T00:24:37.719Z,98411.69
2023-02-12T00:27:35.698Z,98416.59
2023-02-12T00:30:32.555Z,98406.59
2023-02-12T00:33:29.691Z,98398.03
2023-02-12T00:36:29.467Z,98403.13
2023-02-12T00:39:26.355Z,98406.00
2023-02-12T00:42:23.179Z,98405.59
2023-02-12T00:45:20.292Z,98406.63
2023-02-12T00:48:17.301Z,98407.22
2023-02-12T00:51:14.657Z,98402.75
2023-02-12T00:54:11.501Z,98402.97
2023-02-12T00:57:08.312Z,98408.84
2023-02-12T01:00:06.159Z,98405.41
2023-02-12T01:03:04.159Z,98402.94
2023-02-12T01:06:01.044Z,98402.94
2023-02-12T01:08:57.830Z,98407.44
2023-02-12T01:11:54.654Z,98404.56
2023-02-12T01:14:51.457Z,98402.47
2023-02-12T01:17:48.292Z,98401.31
2023-02-12T01:20:45.113Z,98402.53
2023-02-12T01:23:42.985Z,98395.00
2023-02-12T01:26:39.855Z,98407.63
2023-02-12T01:29:38.246Z,98398.69
2023-02-12T01:32:35.288Z,98403.16
2023-02-12T01:35:32.153Z,98403.97
2023-02-12T01:38:28.963Z,98401.50
2023-02-12T01:41:41.852Z,98400.72
2023-02-12T01:45:12.065Z,98395.66
2023-02-12T01:48:08.888Z,98395.44
2023-02-12T01:51:09.328Z,98390.78
2023-02-12T01:54:08.526Z,98391.19
2023-02-12T01:57:08.305Z,98397.84
2023-02-12T02:00:20.111Z,98398.25
2023-02-12T02:03:17.108Z,98403.94
2023-02-12T02:06:23.545Z,98399.72
2023-02-12T02:09:20.937Z,98401.75
2023-02-12T02:12:36.679Z,98395.00
2023-02-12T02:15:34.276Z,98403.94
2023-02-12T02:18:44.278Z,98395.00
2023-02-12T02:22:14.891Z,98394.03
2023-02-12T02:25:34.419Z,98392.44
2023-02-12T02:28:52.924Z,98386.53
2023-02-12T02:32:06.327Z,98383.69
2023-02-12T02:35:26.648Z,98377.56
2023-02-12T02:38:39.714Z,98377.16
2023-02-12T02:42:05.721Z,98376.78
2023-02-12T02:45:16.602Z,98381.06
2023-02-12T02:48:27.044Z,98367.00
2023-02-12T02:51:31.907Z,98368.84
2023-02-12T02:54:36.929Z,98372.94
2023-02-12T02:58:02.512Z,98372.50
2023-02-12T03:01:06.962Z,98371.88
2023-02-12T03:04:08.769Z,98360.31
2023-02-12T03:07:19.421Z,98373.34
2023-02-12T03:10:26.532Z,98367.44
2023-02-12T03:13:31.680Z,98373.31
2023-02-12T03:16:35.113Z,98380.22
2023-02-12T03:19:46.638Z,98375.16
2023-02-12T03:22:55.406Z,98366.41
2023-02-12T03:26:12.534Z,98371.28
2023-02-12T03:29:09.626Z,98380.03
2023-02-12T03:32:51.507Z,98379.22
2023-02-12T03:36:06.925Z,98375.56
2023-02-12T03:39:35.163Z,98378.81
2023-02-12T03:42:56.727Z,98367.25
2023-02-12T03:46:04.517Z,98372.94
2023-02-12T03:49:12.318Z,98378.84
2023-02-12T03:52:09.372Z,98383.91
2023-02-12T03:55:08.254Z,98393.44
2023-02-12T03:58:13.584Z,98393.41
2023-02-12T04:01:12.878Z,98398.13
2023-02-12T04:04:10.228Z,98399.72
2023-02-12T04:07:07.314Z,98395.91
2023-02-12T04:10:04.600Z,98393.88
2023-02-12T04:13:23.906Z,98399.31
2023-02-12T04:16:48.743Z,98398.13
2023-02-12T04:20:27.578Z,98398.13
2023-02-12T04:23:55.404Z,98399.56
2023-02-12T04:27:02.684Z,98401.97
2023-02-12T04:30:22.501Z,98406.25
2023-02-12T04:33:22.949Z,98401.34
2023-02-12T04:36:30.844Z,98404.00
2023-02-12T04:39:31.558Z,98404.03
2023-02-12T04:42:28.346Z,98407.06
2023-02-12T04:45:33.146Z,98405.25
2023-02-12T04:48:30.152Z,98417.44
2023-02-12T04:51:27.016Z,98413.34
2023-02-12T04:54:24.497Z,98415.78
2023-02-12T04:57:21.308Z,98415.22
2023-02-12T05:00:18.540Z,98403.22
2023-02-12T05:03:15.415Z,98414.78
2023-02-12T05:06:12.207Z,98427.81
2023-02-12T05:09:16.848Z,98425.16
2023-02-12T05:12:13.661Z,98429.81
2023-02-12T05:15:10.640Z,98426.00
2023-02-12T05:18:07.445Z,98432.28
2023-02-12T05:21:05.551Z,98436.34
2023-02-12T05:24:03.212Z,98428.84
2023-02-12T05:27:00.039Z,98444.06
2023-02-12T05:29:56.888Z,98434.94
2023-02-12T05:32:53.703Z,98436.97
2023-02-12T05:35:50.582Z,98430.81
2023-02-12T05:38:48.609Z,98434.50
2023-02-12T05:41:45.424Z,98441.41
2023-02-12T05:44:42.255Z,98436.97
2023-02-12T05:47:39.076Z,98448.75
2023-02-12T05:50:36.381Z,98439.97
2023-02-12T05:53:33.704Z,98451.97
2023-02-12T05:56:37.650Z,98459.06
2023-02-12T05:59:34.537Z,98461.91
2023-02-12T06:02:31.361Z,98466.59
2023-02-12T06:05:28.202Z,98465.38
2023-02-12T06:08:25.007Z,98472.53
2023-02-12T06:11:22.118Z,98474.53
2023-02-12T06:14:20.835Z,98479.59
2023-02-12T06:17:17.633Z,98472.28
2023-02-12T06:20:14.435Z,98499.75
2023-02-12T06:23:11.230Z,98482.50
2023-02-12T06:26:09.138Z,98490.81
2023-02-12T06:29:06.445Z,98488.75
2023-02-12T06:32:03.579Z,98487.31
2023-02-12T06:35:00.574Z,98499.88
2023-02-12T06:38:00.978Z,98494.22
2023-02-12T06:41:01.032Z,98490.00
2023-02-12T06:43:58.521Z,98497.91
2023-02-12T06:46:55.413Z,98501.38
2023-02-12T06:49:52.351Z,98502.78
2023-02-12T06:52:49.215Z,98504.41
2023-02-12T06:55:46.035Z,98500.19
2023-02-12T06:58:47.242Z,98513.78
2023-02-12T07:01:44.354Z,98508.91
2023-02-12T07:04:41.242Z,98507.94
2023-02-12T07:07:38.082Z,98521.91
2023-02-12T07:10:34.964Z,98523.78
2023-02-12T07:13:34.782Z,98527.19
2023-02-12T07:16:31.810Z,98531.69
2023-02-12T07:19:28.639Z,98535.16
2023-02-12T07:22:25.611Z,98537.63
2023-02-12T07:25:22.429Z,98540.84
2023-02-12T07:28:19.245Z,98535.34
2023-02-12T07:31:20.308Z,98536.41
2023-02-12T07:34:17.491Z,98534.13
2023-02-12T07:37:14.362Z,98536.41
2023-02-12T07:40:11.528Z,98533.34
2023-02-12T07:43:08.397Z,98535.00
2023-02-12T07:46:14.502Z,98541.72
2023-02-12T07:49:16.083Z,98547.78
2023-02-12T07:52:13.485Z,98537.63
2023-02-12T07:55:10.771Z,98539.88
2023-02-12T07:58:07.572Z,98546.41
2023-02-12T08:01:24.543Z,98545.34
2023-02-12T08:04:24.766Z,98549.88
2023-02-12T08:07:21.617Z,98548.25
2023-02-12T08:10:22.269Z,98551.50
2023-02-12T08:13:18.991Z,98563.50
2023-02-12T08:16:24.031Z,98560.06
2023-02-12T08:19:25.768Z,98561.06
2023-02-12T08:22:23.404Z,98569.19
2023-02-12T08:25:20.217Z,98570.84
2023-02-12T08:28:17.185Z,98567.00
2023-02-12T08:31:20.142Z,98579.81
2023-02-12T08:34:35.620Z,98578.81
2023-02-12T08:37:32.457Z,98585.91
2023-02-12T08:40:29.358Z,98584.47
2023-02-12T08:43:27.390Z,98589.38
2023-02-12T08:46:30.450Z,98584.06
2023-02-12T08:49:30.012Z,98582.84
2023-02-12T08:52:27.424Z,98587.53
2023-02-12T08:55:24.245Z,98579.19
2023-02-12T08:58:21.066Z,98581.03
2023-02-12T09:01:21.661Z,98575.09
2023-02-12T09:04:26.139Z,98587.13
2023-02-12T09:07:23.046Z,98574.88
2023-02-12T09:10:19.909Z,98591.56
2023-02-12T09:13:16.743Z,98590.13
2023-02-12T09:16:14.875Z,98596.44
2023-02-12T09:19:14.340Z,98599.31
2023-02-12T09:22:12.049Z,98602.34
2023-02-12T09:25:08.965Z,98606.03
2023-02-12T09:28:05.870Z,98594.81
2023-02-12T09:31:12.621Z,98599.41
2023-02-12T09:34:09.555Z,98592.06
2023-02-12T09:37:06.369Z,98598.22
2023-02-12T09:40:04.745Z,98595.84
2023-02-12T09:43:15.518Z,98600.78
2023-02-12T09:46:26.536Z,98606.75
2023-02-12T09:49:46.109Z,98594.84
2023-02-12T09:52:43.899Z,98608.84
2023-02-12T09:55:41.217Z,98606.41
2023-02-12T09:58:56.529Z,98604.50
2023-02-12T10:01:53.469Z,98601.50
2023-02-12T10:05:00.984Z,98603.00
2023-02-12T10:08:20.613Z,98606.44
2023-02-12T10:11:53.237Z,98605.53
2023-02-12T10:15:30.498Z,98612.47
2023-02-12T10:18:57.815Z,98604.59
2023-02-12T10:22:26.591Z,98614.13
2023-02-12T10:25:52.236Z,98600.28
2023-02-12T10:28:51.169Z,98601.13
2023-02-12T10:32:07.306Z,98602.72
2023-02-12T10:35:18.102Z,98603.22
2023-02-12T10:38:21.411Z,98605.41
2023-02-12T10:41:18.280Z,98613.34
2023-02-12T10:44:15.379Z,98606.78
2023-02-12T10:47:32.520Z,98606.00
2023-02-12T10:51:04.161Z,98607.72
2023-02-12T10:54:41.838Z,98603.16
2023-02-12T10:57:39.602Z,98609.97
2023-02-12T11:00:38.378Z,98599.06
2023-02-12T11:03:37.563Z,98597.56
2023-02-12T11:06:34.401Z,98597.47
2023-02-12T11:09:40.733Z,98591.38
2023-02-12T11:12:48.071Z,98584.63
2023-02-12T11:15:49.508Z,98575.22
2023-02-12T11:18:57.243Z,98565.28
2023-02-12T11:22:18.976Z,98565.44
2023-02-12T11:25:16.935Z,98563.09
2023-02-12T11:28:19.643Z,98561.09
2023-02-12T11:31:16.541Z,98555.97
2023-02-12T11:34:18.785Z,98552.47
2023-02-12T11:37:19.821Z,98547.78
2023-02-12T11:40:30.208Z,98534.59
2023-02-12T11:43:30.155Z,98527.47
2023-02-12T11:46:28.649Z,98522.44
2023-02-12T11:49:37.470Z,98524.41
2023-02-12T11:52:37.702Z,98518.91
2023-02-12T11:55:39.890Z,98525.53
2023-02-12T11:58:36.708Z,98518.59
2023-02-12T12:01:37.609Z,98521.50
2023-02-12T12:04:36.561Z,98521.03
2023-02-12T12:07:36.744Z,98523.25
2023-02-12T12:10:46.224Z,98528.59
2023-02-12T12:14:58.160Z,98533.34
2023-02-12T12:18:23.149Z,98533.00
2023-02-12T12:21:43.513Z,98532.28
2023-02-12T12:25:29.307Z,98538.44
2023-02-12T12:28:40.794Z,98540.50
2023-02-12T12:31:49.169Z,98538.31
2023-02-12T12:34:46.049Z,98531.47
2023-02-12T12:38:13.117Z,98538.31
2023-02-12T12:41:41.217Z,98531.34
2023-02-12T12:44:55.845Z,98532.63
2023-02-12T12:48:08.242Z,98528.91
2023-02-12T12:51:36.421Z,98533.66
2023-02-12T12:55:06.638Z,98534.63
2023-02-12T12:58:26.118Z,98528.25
2023-02-12T13:01:57.085Z,98526.88
2023-02-12T13:05:12.502Z,98522.53
2023-02-12T13:08:45.835Z,98516.66
2023-02-12T13:12:13.232Z,98518.63
2023-02-12T13:15:33.317Z,98519.19
2023-02-12T13:18:41.534Z,98522.44
2023-02-12T13:21:53.251Z,98524.75
2023-02-12T13:25:04.255Z,98527.41
2023-02-12T13:28:03.670Z,98522.91
2023-02-12T13:31:05.039Z,98530.53
2023-02-12T13:34:13.685Z,98530.66
2023-02-12T13:37:25.540Z,98532.06
2023-02-12T13:40:26.361Z,98532.97
2023-02-12T13:43:23.032Z,98528.22
2023-02-12T13:47:15.263Z,98525.09
2023-02-12T13:51:01.017Z,98524.31
2023-02-12T13:54:11.775Z,98523.25
2023-02-12T13:57:15.237Z,98522.44
2023-02-12T14:01:01.137Z,98525.31
2023-02-12T14:04:19.328Z,98529.22
2023-02-12T14:07:16.454Z,98518.94
2023-02-12T14:10:21.388Z,98530.59
2023-02-12T14:13:24.364Z,98517.59
2023-02-12T14:16:30.146Z,98521.81
2023-02-12T14:19:51.866Z,98519.88
2023-02-12T14:22:48.591Z,98519.91
2023-02-12T14:26:15.771Z,98523.53
2023-02-12T14:29:22.752Z,98523.72
2023-02-12T14:32:58.124Z,98523.56
2023-02-12T14:36:15.163Z,98517.88
2023-02-12T14:39:20.996Z,98525.09
2023-02-12T14:42:23.754Z,98533.75
2023-02-12T14:45:34.244Z,98514.78
2023-02-12T14:49:05.878Z,98522.88
2023-02-12T14:52:14.182Z,98531.09
2023-02-12T14:55:26.310Z,98520.94
2023-02-12T14:58:26.803Z,98530.00
2023-02-12T15:01:34.826Z,98534.00
2023-02-12T15:04:37.838Z,98537.00
2023-02-12T15:07:45.829Z,98530.06
2023-02-12T15:11:21.409Z,98527.06
2023-02-12T15:14:53.192Z,98524.34
2023-02-12T15:18:01.685Z,98531.56
2023-02-12T15:21:21.829Z,98517.31
2023-02-12T15:24:25.532Z,98525.66
2023-02-12T15:27:25.292Z,98528.88
2023-02-12T15:30:30.386Z,98530.03
2023-02-12T15:33:34.210Z,98529.09
2023-02-12T15:36:33.452Z,98531.84
2023-02-12T15:39:44.083Z,98524.28
2023-02-12T15:42:42.880Z,98527.44
2023-02-12T15:45:39.851Z,98527.78
2023-02-12T15:48:38.821Z,98522.44
2023-02-12T15:51:41.677Z,98531.53
2023-02-12T15:54:39.255Z,98532.25
2023-02-12T15:57:36.070Z,98523.41
2023-02-12T16:00:43.563Z,98532.16
2023-02-12T16:03:40.986Z,98529.06
2023-02-12T16:06:37.955Z,98523.84
2023-02-12T16:09:36.354Z,98534.16
2023-02-12T16:12:37.510Z,98524.50
2023-02-12T16:15:35.428Z,98518.72
2023-02-12T16:18:32.360Z,98529.72
2023-02-12T16:21:29.233Z,98526.78
2023-02-12T16:24:30.475Z,98543.16
2023-02-12T16:27:34.271Z,98541.63
2023-02-12T16:30:42.960Z,98550.31
2023-02-12T16:33:39.913Z,98547.06
2023-02-12T16:36:47.108Z,98542.13
2023-02-12T16:39:55.893Z,98545.59
2023-02-12T16:42:52.715Z,98550.06
2023-02-12T16:45:50.638Z,98550.88
2023-02-12T16:48:54.076Z,98554.94
2023-02-12T16:51:53.043Z,98556.97
2023-02-12T16:54:50.003Z,98557.19
2023-02-12T16:57:46.879Z,98553.97
2023-02-12T17:00:44.011Z,98558.25
2023-02-12T17:03:42.164Z,98558.50
2023-02-12T17:06:39.063Z,98560.53
2023-02-12T17:09:36.004Z,98562.78
2023-02-12T17:12:33.506Z,98563.63
2023-02-12T17:15:55.282Z,98569.91
2023-02-12T17:18:52.433Z,98569.06
2023-02-12T17:21:51.204Z,98573.19
2023-02-12T17:24:51.531Z,98572.78
2023-02-12T17:27:48.776Z,98571.97
2023-02-12T17:30:45.817Z,98574.03
2023-02-12T17:33:42.696Z,98577.25
2023-02-12T17:36:40.117Z,98576.66
2023-02-12T17:39:36.950Z,98583.81
2023-02-12T17:42:34.118Z,98584.84
2023-02-12T17:45:31.360Z,98587.91
2023-02-12T17:48:28.426Z,98584.84
2023-02-12T17:51:25.930Z,98586.69
2023-02-12T17:54:22.844Z,98583.22
2023-02-12T17:57:19.863Z,98584.66
2023-02-12T18:00:17.679Z,98586.28
2023-02-12T18:03:14.565Z,98580.34
2023-02-12T18:06:14.262Z,98582.22
2023-02-12T18:09:11.177Z,98588.50
2023-02-12T18:12:08.216Z,98597.25
2023-02-12T18:15:07.625Z,98595.63
2023-02-12T18:18:04.465Z,98592.19
2023-02-12T18:21:01.288Z,98588.75
2023-02-12T18:23:58.102Z,98586.88
2023-02-12T18:26:54.993Z,98584.44
2023-02-12T18:29:51.923Z,98585.91
2023-02-12T18:32:48.776Z,98587.72
2023-02-12T18:35:45.602Z,98583.47
2023-02-12T18:38:43.739Z,98586.06
2023-02-12T18:41:40.707Z,98569.81
2023-02-12T18:44:37.643Z,98576.94
2023-02-12T18:47:34.711Z,98576.31
2023-02-12T18:50:31.551Z,98584.88
2023-02-12T18:53:28.631Z,98581.00
2023-02-12T18:56:25.498Z,98589.97
2023-02-12T18:59:22.667Z,98582.44
2023-02-12T19:02:19.561Z,98580.59
2023-02-12T19:05:16.654Z,98586.88
2023-02-12T19:08:13.990Z,98601.97
2023-02-12T19:11:12.900Z,98587.53
2023-02-12T19:14:11.048Z,98591.59
2023-02-12T19:17:07.990Z,98585.72
2023-02-12T19:20:05.193Z,98595.88
2023-02-12T19:23:02.013Z,98591.22
2023-02-12T19:26:05.180Z,98589.53
2023-02-12T19:29:02.818Z,98599.53
2023-02-12T19:31:59.743Z,98590.97
2023-02-12T19:34:56.593Z,98597.50
2023-02-12T19:37:53.401Z,98602.19
2023-02-12T19:40:50.690Z,98609.94
2023-02-12T19:43:48.197Z,98604.44
2023-02-12T19:46:46.060Z,98603.59
2023-02-12T19:49:43.347Z,98596.09
2023-02-12T19:52:41.379Z,98592.03
2023-02-12T19:55:38.236Z,98595.66
2023-02-12T19:58:35.277Z,98596.28
2023-02-12T20:01:33.344Z,98592.41
2023-02-12T20:04:30.972Z,98596.91
2023-02-12T20:07:28.024Z,98601.59
2023-02-12T20:10:24.866Z,98599.16
2023-02-12T20:13:22.774Z,98597.72
2023-02-12T20:16:23.834Z,98602.19
2023-02-12T20:19:25.361Z,98611.16
2023-02-12T20:22:24.352Z,98612.16
2023-02-12T20:25:21.574Z,98609.53
2023-02-12T20:28:18.810Z,98614.41
2023-02-12T20:31:20.437Z,98608.09
2023-02-12T20:34:19.681Z,98614.41
2023-02-12T20:37:18.099Z,98611.97
2023-02-12T20:40:14.908Z,98614.59
2023-02-12T20:43:11.717Z,98612.78
2023-02-12T20:46:16.560Z,98616.03
2023-02-12T20:49:16.033Z,98615.84
2023-02-12T20:52:13.019Z,98613.78
2023-02-12T20:55:09.965Z,98616.25
2023-02-12T20:58:06.769Z,98605.66
2023-02-12T21:01:09.723Z,98615.03
2023-02-12T21:04:13.403Z,98617.25
2023-02-12T21:07:10.360Z,98614.19
2023-02-12T21:10:07.909Z,98610.94
2023-02-12T21:13:04.711Z,98607.31
2023-02-12T21:16:11.006Z,98603.81
2023-02-12T21:19:09.034Z,98619.09
2023-02-12T21:22:05.872Z,98618.47
2023-02-12T21:25:02.681Z,98617.66
2023-02-12T21:27:59.534Z,98616.25
2023-02-12T21:30:56.393Z,98619.25
2023-02-12T21:33:55.690Z,98622.34
2023-02-12T21:36:56.998Z,98629.47
2023-02-12T21:39:53.814Z,98636.81
2023-02-12T21:42:50.620Z,98637.59
2023-02-12T21:45:53.339Z,98641.84
2023-02-12T21:48:51.075Z,98636.56
2023-02-12T21:51:47.882Z,98640.84
2023-02-12T21:54:45.284Z,98640.03
2023-02-12T21:57:42.149Z,98632.72
2023-02-12T22:00:39.012Z,98646.16
2023-02-12T22:03:36.653Z,98638.81
2023-02-12T22:06:38.859Z,98633.34
2023-02-12T22:09:35.731Z,98637.59
2023-02-12T22:12:34.669Z,98625.59
2023-02-12T22:15:31.486Z,98631.47
2023-02-12T22:18:28.312Z,98630.44
2023-02-12T22:21:28.192Z,98625.16
2023-02-12T22:24:25.024Z,98624.38
2023-02-12T22:27:21.821Z,98621.72
2023-02-12T22:30:18.892Z,98622.53
2023-02-12T22:33:15.701Z,98634.91
2023-02-12T22:36:12.720Z,98620.47
2023-02-12T22:39:12.994Z,98615.63
2023-02-12T22:42:10.217Z,98622.53
2023-02-12T22:45:07.451Z,98617.03
2023-02-12T22:48:04.414Z,98619.91
2023-02-12T22:51:07.816Z,98626.97
2023-02-12T22:54:06.274Z,98615.78
2023-02-12T22:57:03.085Z,98621.91
2023-02-12T22:59:59.926Z,98628.44
2023-02-12T23:02:56.721Z,98621.09
2023-02-12T23:05:53.558Z,98612.56
2023-02-12T23:08:56.018Z,98619.88
2023-02-12T23:11:52.812Z,98612.75
2023-02-12T23:14:49.628Z,98613.56
2023-02-12T23:17:47.348Z,98612.94
2023-02-12T23:20:44.176Z,98614.16
2023-02-12T23:23:41.293Z,98609.09
2023-02-12T23:26:38.103Z,98605.44
2023-02-12T23:29:35.051Z,98600.13
2023-02-12T23:32:31.962Z,98597.09
2023-02-12T23:35:28.855Z,98596.88
2023-02-12T23:38:25.692Z,98606.84
2023-02-12T23:41:22.589Z,98599.13
2023-02-12T23:44:19.424Z,98591.00
2023-02-12T23:47:16.219Z,98590.38
2023-02-12T23:50:13.054Z,98586.09
2023-02-12T23:53:10.994Z,98589.97
2023-02-12T23:56:08.002Z,98588.53
2023-02-12T23:59:05.299Z,98587.31
